Time;durP1;ratioP1;P1;durP2;ratioP2;P2;SDS_P1;SDS_P2;PMS_P1;PMS_P2;Temp;Humidity;BMP_temperature;BMP_pressure;BME280_temperature;BME280_humidity;BME280_pressure;Samples;Min_cycle;Max_cycle;Signal;HPM_P1;HPM_P2
2023/07/17 00:01:32;;;;;;;5.33;3.80;;;20.30;99.90;;;;;;5062066;28;20181;-82
2023/07/17 00:03:57;;;;;;;5.47;3.10;;;20.10;99.90;;;;;;5063421;28;20205;-81
2023/07/17 00:06:23;;;;;;;3.67;3.37;;;19.80;99.90;;;;;;5059030;28;20810;-81
2023/07/17 00:08:48;;;;;;;3.43;3.13;;;19.80;99.90;;;;;;5044610;28;20194;-82
2023/07/17 00:11:14;;;;;;;5.20;3.50;;;19.80;99.90;;;;;;5056991;28;20173;-82
2023/07/17 00:13:39;;;;;;;3.50;3.20;;;19.80;99.90;;;;;;5059427;28;20250;-81
2023/07/17 00:16:05;;;;;;;4.23;3.20;;;20.20;99.90;;;;;;5060710;28;20993;-82
2023/07/17 00:18:34;;;;;;;6.13;3.23;;;19.70;99.90;;;;;;5060966;28;20193;-82
2023/07/17 00:21:02;;;;;;;4.78;2.92;;;20.10;99.90;;;;;;5058434;28;20222;-83
2023/07/17 00:23:28;;;;;;;4.85;3.25;;;20.00;99.90;;;;;;5077362;28;20711;-81
2023/07/17 00:25:54;;;;;;;4.43;3.50;;;20.10;99.90;;;;;;5060205;28;20210;-82
2023/07/17 00:28:19;;;;;;;3.97;3.33;;;19.90;99.90;;;;;;5062319;28;20189;-83
2023/07/17 00:30:45;;;;;;;3.53;2.97;;;20.10;99.90;;;;;;5062494;28;20591;-82
2023/07/17 00:33:11;;;;;;;4.40;3.47;;;19.90;99.90;;;;;;5058469;28;20188;-81
2023/07/17 00:35:37;;;;;;;5.53;3.90;;;19.80;99.90;;;;;;5060140;28;20466;-81
2023/07/17 00:38:02;;;;;;;4.40;3.33;;;20.00;99.90;;;;;;5061435;28;20770;-82
2023/07/17 00:40:28;;;;;;;4.30;3.13;;;20.10;99.90;;;;;;5060249;28;20641;-82
2023/07/17 00:43:00;;;;;;;3.73;3.30;;;20.10;99.90;;;;;;5060316;28;20176;-82
2023/07/17 00:45:31;;;;;;;3.70;3.40;;;19.80;99.90;;;;;;5063704;28;20192;-82
2023/07/17 00:47:57;;;;;;;4.28;3.35;;;19.70;99.90;;;;;;5061123;28;20189;-82
2023/07/17 00:50:23;;;;;;;5.55;3.65;;;19.80;99.90;;;;;;5065497;28;20585;-82
2023/07/17 00:52:49;;;;;;;4.60;3.17;;;19.90;99.90;;;;;;5081769;28;20384;-82
2023/07/17 00:55:15;;;;;;;3.90;2.80;;;20.20;99.90;;;;;;5065032;28;20185;-81
2023/07/17 00:57:41;;;;;;;3.72;3.13;;;20.30;99.90;;;;;;5062572;28;20754;-81
2023/07/17 01:00:08;;;;;;;11.70;4.00;;;20.20;99.90;;;;;;5081404;28;20187;-80
2023/07/17 01:02:37;;;;;;;3.80;3.25;;;19.90;99.90;;;;;;5062516;28;20203;-82
2023/07/17 01:05:03;;;;;;;5.18;3.05;;;20.20;99.90;;;;;;5059367;28;20177;-82
2023/07/17 01:07:28;;;;;;;3.83;3.10;;;20.00;99.90;;;;;;5054747;28;20251;-82
2023/07/17 01:09:54;;;;;;;4.17;3.00;;;20.40;99.90;;;;;;5074942;28;20451;-82
2023/07/17 01:12:19;;;;;;;3.43;3.13;;;20.10;99.90;;;;;;5055184;28;20208;-82
2023/07/17 01:14:48;;;;;;;6.90;3.40;;;20.50;99.90;;;;;;5058067;28;20184;-83
2023/07/17 01:17:13;;;;;;;4.32;3.60;;;20.40;99.90;;;;;;5054787;28;20209;-83
2023/07/17 01:19:39;;;;;;;4.27;3.03;;;20.30;99.90;;;;;;5056666;28;20989;-83
2023/07/17 01:22:19;;;;;;;4.13;3.13;;;20.30;99.90;;;;;;5059779;28;20193;-82
2023/07/17 01:24:44;;;;;;;5.07;3.03;;;20.10;99.90;;;;;;5057518;28;20248;-81
2023/07/17 01:27:10;;;;;;;5.00;3.07;;;20.10;99.90;;;;;;5058582;28;20294;-81
2023/07/17 01:29:35;;;;;;;4.40;3.20;;;20.20;99.90;;;;;;5057812;28;20668;-82
2023/07/17 01:32:02;;;;;;;5.60;3.23;;;20.20;99.90;;;;;;5060799;28;20195;-82
2023/07/17 01:34:28;;;;;;;4.32;3.13;;;20.30;99.90;;;;;;5073636;28;20185;-81
2023/07/17 01:36:53;;;;;;;5.37;3.00;;;20.20;99.90;;;;;;5059407;28;21050;-81
2023/07/17 01:39:19;;;;;;;5.73;3.13;;;20.70;99.90;;;;;;5075307;28;20242;-82
2023/07/17 01:41:44;;;;;;;4.90;3.03;;;20.40;99.90;;;;;;5072223;28;20230;-82
2023/07/17 01:44:10;;;;;;;4.70;3.53;;;20.60;99.90;;;;;;5056915;28;20181;-82
2023/07/17 01:46:35;;;;;;;4.47;3.53;;;20.40;99.90;;;;;;5061269;28;20219;-82
2023/07/17 01:49:01;;;;;;;6.07;3.70;;;20.40;99.90;;;;;;5055920;28;20197;-82
2023/07/17 01:51:26;;;;;;;3.53;3.00;;;20.50;99.90;;;;;;5067624;28;20212;-82
2023/07/17 01:53:52;;;;;;;4.80;3.20;;;20.40;99.90;;;;;;5056754;28;20204;-82
2023/07/17 01:56:17;;;;;;;4.63;3.27;;;20.40;99.90;;;;;;5053715;28;20204;-82
2023/07/17 01:58:43;;;;;;;5.87;3.30;;;20.80;99.90;;;;;;5055639;28;20806;-82
2023/07/17 02:01:08;;;;;;;5.17;3.80;;;20.90;99.90;;;;;;5069494;28;20192;-82
2023/07/17 02:03:36;;;;;;;4.73;3.07;;;20.60;99.90;;;;;;5058101;28;20637;-82
2023/07/17 02:06:01;;;;;;;3.28;2.70;;;20.30;99.90;;;;;;5053307;28;20712;-82
2023/07/17 02:08:27;;;;;;;5.40;3.20;;;20.70;99.90;;;;;;5058378;28;20211;-83
2023/07/17 02:10:53;;;;;;;3.37;3.07;;;20.60;99.90;;;;;;5054312;28;20492;-82
2023/07/17 02:13:18;;;;;;;7.70;3.47;;;20.70;99.90;;;;;;5072085;28;20181;-82
2023/07/17 02:15:45;;;;;;;3.70;3.00;;;20.40;99.90;;;;;;5052148;28;20204;-81
2023/07/17 02:18:10;;;;;;;3.05;2.75;;;20.60;99.90;;;;;;5054139;28;20203;-82
2023/07/17 02:20:36;;;;;;;4.20;3.30;;;20.80;99.90;;;;;;5049070;28;20189;-81
2023/07/17 02:23:01;;;;;;;2.63;2.37;;;20.60;99.90;;;;;;5049449;28;20718;-81
2023/07/17 02:25:27;;;;;;;3.10;2.80;;;20.20;99.90;;;;;;5055049;28;20226;-81
2023/07/17 02:27:53;;;;;;;5.37;3.17;;;20.30;99.90;;;;;;5045962;28;20233;-82
2023/07/17 02:30:18;;;;;;;3.23;2.93;;;20.60;99.90;;;;;;5053006;28;20188;-81
2023/07/17 02:32:44;;;;;;;4.30;3.23;;;20.20;99.90;;;;;;5071532;28;20192;-82
2023/07/17 02:35:10;;;;;;;3.03;2.83;;;20.40;99.90;;;;;;5068926;28;20659;-81
2023/07/17 02:37:35;;;;;;;4.57;2.97;;;20.50;99.90;;;;;;5061383;28;20561;-82
2023/07/17 02:40:05;;;;;;;3.60;3.30;;;20.70;99.90;;;;;;5076943;28;20223;-82
2023/07/17 02:42:30;;;;;;;5.22;3.15;;;20.30;99.90;;;;;;5059496;28;20198;-82
2023/07/17 02:44:56;;;;;;;3.17;2.80;;;20.50;99.90;;;;;;5082788;28;20200;-82
2023/07/17 02:47:21;;;;;;;3.97;2.90;;;20.70;99.90;;;;;;5063721;28;20205;-81
2023/07/17 02:49:47;;;;;;;5.97;3.40;;;20.20;99.90;;;;;;5057904;28;20664;-82
2023/07/17 02:52:13;;;;;;;6.30;3.10;;;20.50;99.90;;;;;;5065660;28;20189;-82
2023/07/17 02:54:39;;;;;;;4.47;3.10;;;20.60;99.90;;;;;;5070298;28;20177;-82
2023/07/17 02:57:05;;;;;;;3.30;3.00;;;20.30;99.90;;;;;;5061355;28;20583;-82
2023/07/17 02:59:31;;;;;;;4.18;3.20;;;20.30;99.90;;;;;;5056404;28;20506;-82
2023/07/17 03:01:57;;;;;;;5.27;3.47;;;20.70;99.90;;;;;;5055814;28;20204;-82
2023/07/17 03:04:23;;;;;;;3.78;3.28;;;20.30;99.90;;;;;;5062014;28;20235;-82
2023/07/17 03:06:49;;;;;;;4.90;3.00;;;20.80;99.90;;;;;;5056732;28;20205;-82
2023/07/17 03:09:14;;;;;;;3.47;2.80;;;20.70;99.90;;;;;;5056098;28;20196;-82
2023/07/17 03:11:40;;;;;;;6.07;3.47;;;20.50;99.90;;;;;;5061976;28;20181;-82
2023/07/17 03:14:05;;;;;;;3.13;2.90;;;20.70;99.90;;;;;;5057803;28;20190;-81
2023/07/17 03:16:31;;;;;;;3.07;2.80;;;20.50;99.90;;;;;;5058768;28;20595;-82
2023/07/17 03:18:57;;;;;;;3.10;2.80;;;20.30;99.90;;;;;;5060951;28;20265;-82
2023/07/17 03:21:22;;;;;;;4.30;3.20;;;20.50;99.90;;;;;;5057450;28;20249;-82
2023/07/17 03:23:48;;;;;;;3.27;2.97;;;20.50;99.90;;;;;;5061735;28;20177;-82
2023/07/17 03:26:13;;;;;;;3.20;2.90;;;20.50;99.90;;;;;;5060706;28;20255;-82
2023/07/17 03:28:39;;;;;;;5.07;3.00;;;20.30;99.90;;;;;;5059088;28;20450;-82
2023/07/17 03:31:04;;;;;;;3.00;2.70;;;20.20;99.90;;;;;;5061755;28;20212;-81
2023/07/17 03:33:33;;;;;;;3.40;3.10;;;20.40;99.90;;;;;;5081197;28;20235;-82
2023/07/17 03:35:59;;;;;;;3.58;2.80;;;20.20;99.90;;;;;;5059512;28;20291;-82
2023/07/17 03:38:24;;;;;;;3.70;3.37;;;20.40;99.90;;;;;;5071327;28;20704;-82
2023/07/17 03:40:50;;;;;;;3.80;3.10;;;20.20;99.90;;;;;;5056197;28;20645;-82
2023/07/17 03:43:15;;;;;;;3.43;3.13;;;20.30;99.90;;;;;;5060432;28;20247;-82
2023/07/17 03:45:41;;;;;;;4.03;3.30;;;20.20;99.90;;;;;;5063739;28;20590;-82
2023/07/17 03:48:06;;;;;;;5.40;3.30;;;20.10;99.90;;;;;;5078473;28;20215;-81
2023/07/17 03:50:32;;;;;;;3.90;3.30;;;19.70;99.90;;;;;;5062662;28;20188;-82
2023/07/17 03:52:57;;;;;;;5.43;3.40;;;19.70;99.90;;;;;;5060730;28;20189;-82
2023/07/17 03:55:23;;;;;;;4.67;2.87;;;19.90;99.90;;;;;;5062382;28;20197;-81
2023/07/17 03:57:48;;;;;;;3.50;3.20;;;19.70;99.90;;;;;;5061298;28;20673;-81
2023/07/17 04:00:14;;;;;;;4.67;2.87;;;19.60;99.90;;;;;;5073677;28;20185;-81
2023/07/17 04:02:44;;;;;;;3.23;2.80;;;19.60;99.90;;;;;;5064331;28;20213;-80
2023/07/17 04:05:10;;;;;;;4.25;3.10;;;19.50;99.90;;;;;;5080310;28;20518;-81
2023/07/17 04:07:36;;;;;;;3.85;2.90;;;20.00;99.90;;;;;;5082636;28;20231;-81
2023/07/17 04:10:02;;;;;;;3.40;2.97;;;20.20;99.90;;;;;;5070481;28;20638;-83
2023/07/17 04:12:27;;;;;;;6.50;3.53;;;19.60;99.90;;;;;;5073358;28;20213;-82
2023/07/17 04:14:53;;;;;;;3.93;3.20;;;19.90;99.90;;;;;;5055328;28;20435;-82
2023/07/17 04:17:18;;;;;;;4.37;3.13;;;19.90;99.90;;;;;;5075871;28;20636;-82
2023/07/17 04:19:44;;;;;;;4.47;3.27;;;19.80;99.90;;;;;;5073209;28;20184;-82
2023/07/17 04:22:09;;;;;;;3.67;3.27;;;19.70;99.90;;;;;;5057427;28;20514;-82
2023/07/17 04:24:35;;;;;;;3.67;3.37;;;19.90;99.90;;;;;;5077345;28;20585;-82
2023/07/17 04:27:00;;;;;;;3.73;3.30;;;19.80;99.90;;;;;;5060282;28;20213;-82
2023/07/17 04:29:26;;;;;;;3.63;3.20;;;19.20;99.90;;;;;;5059760;28;20246;-82
2023/07/17 04:31:51;;;;;;;3.50;3.07;;;19.30;99.90;;;;;;5059135;28;20192;-82
2023/07/17 04:34:18;;;;;;;4.73;3.10;;;19.20;99.90;;;;;;5057871;28;20232;-86
2023/07/17 04:36:44;;;;;;;3.30;3.00;;;19.40;99.90;;;;;;5044169;28;20711;-85
2023/07/17 04:39:09;;;;;;;3.67;3.37;;;19.50;99.90;;;;;;5058386;28;20173;-85
2023/07/17 04:41:35;;;;;;;4.37;3.60;;;19.40;99.90;;;;;;5050699;28;20193;-83
2023/07/17 04:44:00;;;;;;;5.43;3.27;;;19.10;99.90;;;;;;5049952;28;20182;-83
2023/07/17 04:46:26;;;;;;;4.10;3.40;;;19.60;99.90;;;;;;5054721;28;20212;-83
2023/07/17 04:48:52;;;;;;;3.93;3.43;;;19.70;99.90;;;;;;5053589;28;20201;-83
2023/07/17 04:51:17;;;;;;;4.00;3.60;;;20.50;99.90;;;;;;5054980;28;20175;-83
2023/07/17 04:53:42;;;;;;;3.53;3.23;;;19.40;99.90;;;;;;5056305;28;20185;-83
2023/07/17 04:56:08;;;;;;;6.80;3.90;;;20.00;99.90;;;;;;5072703;28;20326;-83
2023/07/17 04:58:34;;;;;;;4.67;3.17;;;20.00;99.90;;;;;;5056109;28;20598;-83
2023/07/17 05:01:04;;;;;;;4.43;3.80;;;19.90;99.90;;;;;;5069015;28;20215;-83
2023/07/17 05:03:30;;;;;;;6.03;4.03;;;19.80;99.90;;;;;;5056303;28;20213;-83
2023/07/17 05:05:56;;;;;;;3.67;3.13;;;20.10;99.90;;;;;;5060703;28;21120;-83
2023/07/17 05:08:24;;;;;;;5.00;3.70;;;20.00;99.90;;;;;;5057798;28;20184;-84
2023/07/17 05:10:54;;;;;;;5.53;3.80;;;20.50;99.90;;;;;;5059330;28;20463;-84
2023/07/17 05:13:22;;;;;;;4.00;3.60;;;20.60;99.90;;;;;;5051457;28;20570;-88
2023/07/17 05:15:48;;;;;;;3.97;3.58;;;20.40;99.90;;;;;;5054959;28;20206;-85
2023/07/17 05:18:13;;;;;;;5.10;3.63;;;20.90;99.90;;;;;;5050828;28;20205;-84
2023/07/17 05:20:39;;;;;;;4.53;4.03;;;21.00;99.90;;;;;;5054309;28;20222;-84
2023/07/17 05:23:04;;;;;;;4.07;3.10;;;21.20;99.90;;;;;;5068132;28;20201;-83
2023/07/17 05:25:30;;;;;;;6.23;3.37;;;21.20;99.90;;;;;;5053045;28;20211;-82
2023/07/17 05:27:56;;;;;;;4.68;3.40;;;21.20;99.90;;;;;;5062945;28;20196;-81
2023/07/17 05:30:22;;;;;;;4.30;3.00;;;20.90;99.90;;;;;;5057092;28;20181;-84
2023/07/17 05:32:47;;;;;;;3.70;3.40;;;21.30;99.90;;;;;;5067738;28;20189;-84
2023/07/17 05:35:13;;;;;;;5.77;3.10;;;21.50;99.90;;;;;;5051783;28;20188;-84
2023/07/17 05:37:38;;;;;;;4.10;3.70;;;21.50;99.90;;;;;;5054308;28;20354;-84
2023/07/17 05:40:05;;;;;;;4.37;3.33;;;21.10;99.90;;;;;;5058203;28;20236;-83
2023/07/17 05:42:30;;;;;;;5.97;3.67;;;21.30;99.90;;;;;;5053274;28;20177;-84
2023/07/17 05:44:56;;;;;;;6.80;3.50;;;21.40;99.90;;;;;;5050269;28;20538;-83
2023/07/17 05:47:21;;;;;;;5.00;3.50;;;21.80;99.90;;;;;;5070873;28;20222;-83
2023/07/17 05:49:47;;;;;;;4.43;4.00;;;21.90;99.90;;;;;;5053710;28;20247;-81
2023/07/17 05:52:15;;;;;;;4.90;3.93;;;21.80;99.10;;;;;;5053408;28;20634;-82
2023/07/17 05:54:41;;;;;;;7.63;4.43;;;22.20;98.70;;;;;;5052819;28;20173;-83
2023/07/17 05:57:07;;;;;;;3.77;3.37;;;23.50;98.80;;;;;;5054029;28;20523;-81
2023/07/17 05:59:33;;;;;;;5.13;3.83;;;21.90;98.10;;;;;;5067039;28;20182;-81
2023/07/17 06:01:58;;;;;;;5.67;3.93;;;22.40;98.40;;;;;;5052904;28;20181;-82
2023/07/17 06:04:24;;;;;;;5.13;4.30;;;22.20;98.00;;;;;;5048460;28;20195;-81
2023/07/17 06:06:51;;;;;;;8.37;3.60;;;22.30;98.00;;;;;;5051218;28;20211;-82
2023/07/17 06:09:16;;;;;;;4.10;3.73;;;22.40;97.90;;;;;;5049828;28;20181;-81
2023/07/17 06:11:42;;;;;;;4.00;3.70;;;22.20;97.40;;;;;;5049008;28;20447;-83
2023/07/17 06:14:07;;;;;;;5.03;3.23;;;23.40;97.50;;;;;;5046506;28;20207;-83
2023/07/17 06:16:33;;;;;;;4.93;2.90;;;22.40;96.80;;;;;;5064792;28;20206;-82
2023/07/17 06:18:58;;;;;;;3.50;3.20;;;22.80;96.70;;;;;;5058541;28;20195;-83
2023/07/17 06:21:24;;;;;;;4.97;3.60;;;23.40;96.90;;;;;;5051562;28;20187;-83
2023/07/17 06:23:50;;;;;;;5.10;2.70;;;22.60;96.30;;;;;;5057354;28;20181;-82
2023/07/17 06:26:16;;;;;;;3.63;3.30;;;22.90;96.10;;;;;;5058340;28;20223;-82
2023/07/17 06:28:41;;;;;;;4.50;3.10;;;23.00;96.00;;;;;;5053387;28;20443;-81
2023/07/17 06:31:07;;;;;;;6.10;3.67;;;22.70;95.40;;;;;;5055931;28;20184;-82
2023/07/17 06:33:35;;;;;;;5.53;3.33;;;22.80;95.10;;;;;;5051306;28;20650;-83
2023/07/17 06:36:02;;;;;;;4.40;2.67;;;22.90;94.70;;;;;;5071459;28;20745;-83
2023/07/17 06:38:28;;;;;;;3.77;3.33;;;23.00;94.30;;;;;;5052757;28;20843;-82
2023/07/17 06:40:54;;;;;;;3.77;3.23;;;23.10;94.40;;;;;;5051130;28;20488;-82
2023/07/17 06:43:19;;;;;;;5.37;3.70;;;23.40;94.50;;;;;;5062317;28;20538;-82
2023/07/17 06:45:45;;;;;;;3.73;3.33;;;23.80;94.50;;;;;;5066093;28;20737;-84
2023/07/17 06:48:10;;;;;;;4.07;3.30;;;24.00;93.80;;;;;;5066852;28;20677;-81
2023/07/17 06:50:36;;;;;;;4.07;3.63;;;23.80;93.10;;;;;;5055478;28;20405;-83
2023/07/17 06:53:01;;;;;;;3.90;2.83;;;23.60;92.10;;;;;;5053670;28;20610;-82
2023/07/17 06:55:27;;;;;;;8.63;3.03;;;24.00;91.10;;;;;;5069121;28;20259;-82
2023/07/17 06:57:53;;;;;;;4.77;3.13;;;24.50;90.70;;;;;;5051681;28;20583;-82
2023/07/17 07:00:19;;;;;;;3.50;2.87;;;24.60;90.00;;;;;;5053881;28;20534;-87
2023/07/17 07:02:44;;;;;;;3.97;3.23;;;25.60;89.80;;;;;;5064866;28;21595;-85
2023/07/17 07:05:10;;;;;;;5.20;3.43;;;25.20;87.90;;;;;;5050226;28;20211;-85
2023/07/17 07:07:36;;;;;;;4.30;3.20;;;25.10;88.60;;;;;;5047015;28;20230;-84
2023/07/17 07:10:01;;;;;;;3.83;3.40;;;25.50;87.30;;;;;;5056957;28;20227;-85
2023/07/17 07:12:27;;;;;;;4.27;3.80;;;25.60;85.80;;;;;;5050957;28;20195;-85
2023/07/17 07:14:52;;;;;;;5.20;3.30;;;25.70;85.00;;;;;;5050542;28;20602;-88
2023/07/17 07:17:18;;;;;;;3.83;3.27;;;27.00;81.50;;;;;;5050059;28;20260;-89
2023/07/17 07:19:43;;;;;;;5.43;3.50;;;28.60;74.60;;;;;;5056334;28;20735;-89
2023/07/17 07:22:09;;;;;;;5.40;3.70;;;30.20;68.90;;;;;;5055340;28;20183;-84
2023/07/17 07:24:34;;;;;;;3.80;3.50;;;31.60;61.00;;;;;;5040249;28;20188;-87
2023/07/17 07:27:00;;;;;;;4.30;3.90;;;32.90;54.50;;;;;;5051738;28;20204;-85
2023/07/17 07:29:25;;;;;;;4.00;3.63;;;34.70;51.10;;;;;;5051916;28;20235;-85
2023/07/17 07:31:51;;;;;;;4.33;3.77;;;34.30;49.90;;;;;;5050163;28;20184;-85
2023/07/17 07:34:16;;;;;;;4.83;3.83;;;35.00;49.00;;;;;;5052946;28;20203;-85
2023/07/17 07:36:42;;;;;;;6.60;4.23;;;35.50;45.50;;;;;;5050480;28;20274;-86
2023/07/17 07:39:08;;;;;;;4.80;3.77;;;36.90;43.00;;;;;;5055512;28;20227;-84
2023/07/17 07:41:35;;;;;;;4.20;3.80;;;37.40;41.30;;;;;;5069134;28;20600;-81
2023/07/17 07:44:01;;;;;;;5.07;4.50;;;38.30;39.20;;;;;;5053164;28;20330;-87
2023/07/17 07:46:27;;;;;;;5.90;5.30;;;37.70;36.90;;;;;;5065897;28;21002;-86
2023/07/17 07:48:52;;;;;;;5.50;5.00;;;37.60;36.40;;;;;;5052707;28;20185;-86
2023/07/17 07:51:18;;;;;;;5.50;4.00;;;38.00;36.50;;;;;;5070672;28;20581;-87
2023/07/17 07:53:44;;;;;;;4.80;4.00;;;38.30;35.30;;;;;;5061093;28;20188;-86
2023/07/17 07:56:09;;;;;;;4.73;4.33;;;37.00;36.20;;;;;;5061096;28;20200;-86
2023/07/17 07:58:35;;;;;;;5.90;3.87;;;37.60;36.70;;;;;;5053633;28;20216;-86
2023/07/17 08:01:00;;;;;;;4.50;4.00;;;37.60;36.60;;;;;;5054532;28;20187;-87
2023/07/17 08:03:27;;;;;;;5.63;4.33;;;38.10;36.50;;;;;;5052412;28;20176;-85
2023/07/17 08:05:52;;;;;;;5.20;4.70;;;39.60;35.10;;;;;;5055542;28;20262;-86
2023/07/17 08:08:18;;;;;;;4.77;4.20;;;38.80;34.40;;;;;;5051643;28;20439;-86
2023/07/17 08:10:43;;;;;;;7.40;4.90;;;37.80;35.10;;;;;;5058243;28;20223;-85
2023/07/17 08:13:09;;;;;;;5.60;4.47;;;38.30;34.70;;;;;;5054668;28;20381;-85
2023/07/17 08:15:34;;;;;;;4.50;4.10;;;38.00;33.60;;;;;;5050711;28;20259;-81
2023/07/17 08:18:00;;;;;;;5.03;4.53;;;37.50;33.40;;;;;;5051902;28;20200;-93
2023/07/17 08:20:25;;;;;;;4.30;3.93;;;36.70;34.50;;;;;;5059351;23;20917;-71
2023/07/17 08:22:55;;;;;;;5.73;4.97;;;36.10;35.00;;;;;;5046832;28;20205;-74
2023/07/17 08:25:22;;;;;;;4.77;4.33;;;35.60;36.00;;;;;;5047315;28;20178;-75
2023/07/17 08:27:48;;;;;;;5.03;4.27;;;35.20;35.90;;;;;;5047504;28;20454;-72
2023/07/17 08:30:14;;;;;;;8.47;6.10;;;34.50;36.90;;;;;;5033348;28;20435;-74
2023/07/17 08:32:39;;;;;;;6.10;4.57;;;35.60;35.20;;;;;;5035282;28;20193;-74
2023/07/17 08:35:05;;;;;;;5.10;4.70;;;35.60;35.10;;;;;;5050888;28;20220;-75
2023/07/17 08:37:31;;;;;;;4.87;3.93;;;35.90;34.30;;;;;;5039081;28;20297;-76
2023/07/17 08:39:56;;;;;;;5.00;4.03;;;35.20;33.60;;;;;;5047622;28;20535;-75
2023/07/17 08:42:22;;;;;;;4.87;4.20;;;34.70;34.20;;;;;;5030917;28;20184;-75
2023/07/17 08:44:49;;;;;;;4.20;3.80;;;34.90;33.50;;;;;;5044187;28;20205;-76
2023/07/17 08:47:15;;;;;;;3.93;3.50;;;35.30;33.40;;;;;;5030906;28;20182;-76
2023/07/17 08:49:42;;;;;;;11.27;5.57;;;35.90;31.60;;;;;;5050044;28;20447;-74
2023/07/17 08:52:10;;;;;;;5.13;4.50;;;36.20;31.60;;;;;;5027428;28;20480;-74
2023/07/17 08:54:36;;;;;;;8.57;5.20;;;36.50;31.30;;;;;;5030253;28;20952;-73
2023/07/17 08:57:03;;;;;;;5.10;4.53;;;37.00;31.20;;;;;;5049742;28;20810;-71
2023/07/17 08:59:34;;;;;;;6.10;5.37;;;36.10;32.20;;;;;;5033296;28;21240;-73
2023/07/17 09:02:04;;;;;;;5.70;5.20;;;34.60;33.90;;;;;;5051437;28;20432;-72
2023/07/17 09:04:31;;;;;;;4.93;4.43;;;33.40;35.40;;;;;;5036947;28;20509;-74
2023/07/17 09:06:57;;;;;;;7.00;6.30;;;32.60;37.30;;;;;;5050575;28;20538;-67
2023/07/17 09:09:22;;;;;;;5.90;4.60;;;32.00;38.70;;;;;;5050781;28;20446;-72
2023/07/17 09:12:06;;;;;;;4.70;4.20;;;32.10;38.50;;;;;;5047125;28;20446;-72
2023/07/17 09:14:32;;;;;;;6.33;5.03;;;32.90;38.10;;;;;;5046318;28;20355;-74
2023/07/17 09:17:07;;;;;;;6.43;4.63;;;33.30;37.20;;;;;;5023766;28;20585;-73
2023/07/17 09:19:34;;;;;;;5.17;4.43;;;34.00;35.70;;;;;;5030388;28;20654;-73
2023/07/17 09:22:05;;;;;;;4.90;4.50;;;33.20;37.00;;;;;;5050642;28;20535;-72
2023/07/17 09:24:33;;;;;;;4.60;4.20;;;32.60;37.20;;;;;;5026756;28;20469;-72
2023/07/17 09:26:59;;;;;;;5.13;4.63;;;32.10;38.80;;;;;;5029887;28;20444;-73
2023/07/17 09:29:24;;;;;;;5.17;4.10;;;31.90;40.20;;;;;;5027349;28;20451;-67
2023/07/17 09:31:50;;;;;;;5.13;4.50;;;31.50;40.80;;;;;;5044985;28;20194;-71
2023/07/17 09:34:16;;;;;;;4.70;4.30;;;31.00;41.50;;;;;;5027809;28;20565;-71
2023/07/17 09:36:42;;;;;;;5.50;4.90;;;30.70;42.30;;;;;;5041542;28;20301;-71
2023/07/17 09:39:09;;;;;;;4.77;4.37;;;31.70;42.30;;;;;;5044772;28;20591;-72
2023/07/17 09:41:35;;;;;;;5.77;4.60;;;32.60;39.60;;;;;;5047119;28;20557;-76
2023/07/17 09:44:01;;;;;;;6.03;4.77;;;32.10;40.60;;;;;;5030273;28;20459;-72
2023/07/17 09:46:27;;;;;;;5.07;4.40;;;31.50;41.30;;;;;;5043267;28;20185;-75
2023/07/17 09:48:54;;;;;;;5.27;4.33;;;30.90;41.80;;;;;;5049734;28;20253;-73
2023/07/17 09:51:21;;;;;;;5.40;4.90;;;30.40;42.70;;;;;;5043822;28;21297;-75
2023/07/17 09:53:47;;;;;;;6.03;5.30;;;30.40;43.70;;;;;;5049491;28;21013;-72
2023/07/17 09:56:19;;;;;;;7.50;5.00;;;30.30;43.80;;;;;;5027146;28;20922;-74
2023/07/17 09:58:50;;;;;;;4.43;4.00;;;30.30;43.80;;;;;;5048428;28;20469;-68
2023/07/17 10:01:24;;;;;;;8.60;4.80;;;30.10;43.10;;;;;;5048739;28;20573;-67
2023/07/17 10:03:51;;;;;;;6.40;5.60;;;29.60;44.00;;;;;;5026474;28;20478;-68
2023/07/17 10:06:19;;;;;;;8.87;7.97;;;29.60;44.70;;;;;;5034467;28;20434;-68
2023/07/17 10:08:47;;;;;;;6.57;5.43;;;29.80;45.20;;;;;;5050509;28;20439;-68
2023/07/17 10:11:17;;;;;;;8.10;5.80;;;30.20;44.40;;;;;;5050305;28;20432;-68
2023/07/17 10:13:47;;;;;;;4.60;4.10;;;31.00;42.40;;;;;;5045099;28;20493;-68
2023/07/17 10:16:16;;;;;;;4.83;4.40;;;32.30;40.60;;;;;;5049568;28;20458;-69
2023/07/17 10:19:10;;;;;;;5.10;4.60;;;33.60;38.50;;;;;;5047499;28;20475;-69
2023/07/17 10:21:55;;;;;;;4.70;4.10;;;33.30;38.80;;;;;;5022696;28;20470;-68
2023/07/17 10:24:24;;;;;;;5.10;4.60;;;32.60;39.60;;;;;;5033545;28;20489;-68
2023/07/17 10:26:50;;;;;;;8.13;7.20;;;31.80;40.40;;;;;;5048219;28;20497;-68
2023/07/17 10:29:31;;;;;;;7.20;6.50;;;31.40;40.90;;;;;;5042607;28;20486;-67
2023/07/17 10:31:57;;;;;;;6.63;5.33;;;30.80;41.90;;;;;;5044218;28;20456;-69
2023/07/17 10:34:50;;;;;;;5.00;4.50;;;30.30;42.10;;;;;;5050206;28;20543;-67
2023/07/17 10:37:40;;;;;;;6.23;5.63;;;30.30;43.20;;;;;;5047598;28;20825;-68
2023/07/17 10:40:07;;;;;;;5.17;4.77;;;29.80;43.30;;;;;;5039060;28;20442;-67
2023/07/17 10:42:33;;;;;;;4.87;4.47;;;29.50;43.90;;;;;;5051552;28;20457;-68
2023/07/17 10:45:12;;;;;;;5.07;4.57;;;29.30;44.40;;;;;;5052479;28;20826;-69
2023/07/17 10:47:38;;;;;;;5.43;4.93;;;29.10;45.20;;;;;;5055313;28;20182;-69
2023/07/17 10:50:04;;;;;;;5.70;4.30;;;28.80;45.40;;;;;;5051864;28;20445;-68
2023/07/17 10:52:34;;;;;;;6.20;4.87;;;28.50;45.60;;;;;;5029201;28;20441;-68
2023/07/17 10:55:04;;;;;;;5.90;5.20;;;28.30;46.70;;;;;;5050807;28;20460;-68
2023/07/17 10:57:30;;;;;;;5.43;4.50;;;28.30;47.00;;;;;;5055886;28;20973;-69
2023/07/17 10:59:57;;;;;;;5.03;4.63;;;28.20;46.50;;;;;;5050675;28;20572;-68
2023/07/17 11:02:26;;;;;;;5.17;4.60;;;28.00;47.50;;;;;;5052452;28;20443;-67
2023/07/17 11:04:57;;;;;;;6.30;5.80;;;27.80;47.00;;;;;;5045393;28;20471;-67
2023/07/17 11:07:23;;;;;;;5.17;4.63;;;27.90;47.80;;;;;;5053645;28;20463;-71
2023/07/17 11:09:48;;;;;;;4.87;4.47;;;27.80;47.40;;;;;;5048104;28;20482;-69
2023/07/17 11:12:14;;;;;;;4.93;4.43;;;28.10;47.70;;;;;;5042886;28;20186;-76
2023/07/17 11:14:41;;;;;;;5.23;4.50;;;28.80;46.30;;;;;;5050464;28;20219;-72
2023/07/17 11:17:10;;;;;;;6.60;5.13;;;30.70;44.10;;;;;;5044197;28;20556;-70
2023/07/17 11:19:35;;;;;;;5.13;4.60;;;32.20;42.00;;;;;;5047202;28;21050;-72
2023/07/17 11:22:01;;;;;;;5.30;4.80;;;33.10;40.40;;;;;;5047753;28;20444;-75
2023/07/17 11:24:27;;;;;;;4.37;3.97;;;34.50;37.50;;;;;;5032958;28;20200;-69
2023/07/17 11:26:53;;;;;;;4.53;4.13;;;35.40;36.30;;;;;;5049852;28;20666;-67
2023/07/17 11:29:20;;;;;;;6.83;4.90;;;35.40;35.50;;;;;;5051933;28;20184;-69
2023/07/17 11:31:46;;;;;;;4.83;4.20;;;34.40;36.00;;;;;;5031682;28;20466;-71
2023/07/17 11:34:11;;;;;;;5.10;4.60;;;33.70;37.10;;;;;;5050172;28;20778;-75
2023/07/17 11:36:41;;;;;;;5.00;4.47;;;33.10;38.70;;;;;;5049562;28;20193;-72
2023/07/17 11:39:21;;;;;;;4.93;4.53;;;32.40;39.80;;;;;;5028600;28;20195;-75
2023/07/17 11:41:53;;;;;;;4.90;4.30;;;32.30;39.40;;;;;;5049268;28;20476;-75
2023/07/17 11:44:29;;;;;;;4.77;4.37;;;32.20;39.90;;;;;;5032391;28;20470;-72
2023/07/17 11:47:06;;;;;;;4.87;4.47;;;32.10;40.10;;;;;;5028398;28;20443;-73
2023/07/17 11:49:34;;;;;;;5.23;4.80;;;31.80;40.30;;;;;;5049678;28;20458;-72
2023/07/17 11:52:00;;;;;;;4.83;4.43;;;31.60;41.00;;;;;;5043581;28;20542;-73
2023/07/17 11:54:44;;;;;;;6.07;5.00;;;31.80;40.90;;;;;;5052767;28;21037;-69
2023/07/17 11:57:10;;;;;;;5.10;4.40;;;31.50;41.50;;;;;;5043656;28;20280;-74
2023/07/17 11:59:36;;;;;;;4.97;4.53;;;30.90;42.00;;;;;;5045761;28;20476;-77
2023/07/17 12:02:01;;;;;;;5.23;4.60;;;30.50;42.70;;;;;;5048740;28;20523;-74
2023/07/17 12:04:28;;;;;;;6.93;5.23;;;30.10;43.50;;;;;;5050768;28;21001;-74
2023/07/17 12:06:58;;;;;;;6.20;4.80;;;29.90;44.30;;;;;;5047279;28;20188;-75
2023/07/17 12:09:24;;;;;;;4.90;4.33;;;29.60;44.70;;;;;;5034623;28;20462;-73
2023/07/17 12:11:50;;;;;;;6.90;6.20;;;29.30;45.30;;;;;;5029667;28;20444;-68
2023/07/17 12:14:16;;;;;;;6.57;5.70;;;29.10;45.80;;;;;;5050480;28;20497;-69
2023/07/17 12:16:43;;;;;;;5.33;4.53;;;29.10;46.70;;;;;;5048066;28;20564;-71
2023/07/17 12:19:09;;;;;;;5.50;5.00;;;29.20;46.20;;;;;;5044959;28;20467;-70
2023/07/17 12:21:35;;;;;;;6.40;4.80;;;29.20;45.50;;;;;;5045347;28;20493;-73
2023/07/17 12:24:00;;;;;;;5.63;5.13;;;29.20;46.50;;;;;;5050616;28;21062;-71
2023/07/17 12:26:26;;;;;;;5.40;4.90;;;29.40;46.10;;;;;;5072070;22;20235;-69
2023/07/17 12:28:52;;;;;;;5.00;4.50;;;29.40;46.20;;;;;;5060262;28;20191;-68
2023/07/17 12:31:18;;;;;;;6.40;5.80;;;29.30;46.00;;;;;;5066383;28;20326;-69
2023/07/17 12:33:43;;;;;;;6.33;5.70;;;29.30;47.20;;;;;;5059721;28;20224;-68
2023/07/17 12:36:09;;;;;;;5.00;4.60;;;29.30;46.80;;;;;;5027092;28;20470;-67
2023/07/17 12:38:35;;;;;;;4.57;4.10;;;29.30;46.80;;;;;;5023012;28;20848;-67
2023/07/17 12:41:00;;;;;;;4.77;4.37;;;29.20;46.20;;;;;;5046090;28;20525;-72
2023/07/17 12:43:26;;;;;;;5.20;4.67;;;28.90;46.60;;;;;;5045307;28;20575;-71
2023/07/17 12:45:51;;;;;;;4.67;4.23;;;28.90;46.30;;;;;;5028439;28;20212;-71